Beauvechain, Belgium

7:01 AM CET on February 09, 2016 (GMT +0100)
Longueville | | Change Station
CLOSE
Current Station
Personal Weather Station
Location: Longueville, RéGION WALLONNE
Elevation: 295 ft
Nearby Weather Stations

Elev 295 ft 50.70 °N, 4.74 °E | Updated 1 minute ago

Mostly Cloudy
Mostly Cloudy
42.4 °F
Feels Like 37 °F
N
10.0
Wind Variable Wind from SSW
Gusts 10.0 mph

Today
High -- | Low -- °F
--% Chance of Precip.
Yesterday
High -- | Low -- °F
Precip. -- in
Pressure 29.39 in
Visibility 6.2 miles
Clouds Scattered Clouds 2900 ft
Mostly Cloudy 3800 ft
Windchill 37 °F
Dew Point 38 °F
Humidity 84%
Rainfall 0.00 in
Snow Depth Not available.
8:04 AM 5:45 PM
New Moon, 1% visible
METAR EBBR 090550Z 22017KT 9999 SCT029 BKN038 07/03 Q0995 NOSIG
Pressure 29.39 in
Visibility 6.2 miles
Clouds Scattered Clouds 2900 ft
Mostly Cloudy 3800 ft
Windchill 37 °F
Dew Point 38 °F
Humidity 84%
Rainfall 0.00 in
Snow Depth Not available.
8:04 AM 5:45 PM
New Moon, 1% visible
METAR EBBR 090550Z 22017KT 9999 SCT029 BKN038 07/03 Q0995 NOSIG

10-Day Weather Forecast

Almanac

Astronomy

Feb. 09, 2016 Rise Set
Actual Time
Civil Twilight
Nautical Twilight
Astronomical Twilight
Moon
Length of Visible Light
Length of Day
Tomorrow will be .
, % of the Moon is Illuminated

Today's Extremes

Country Highs Country Lows

Community

WunderPhotos

Upload Photos

1,891,570 photos uploaded!

WunderBlog® & News

Nearby

Air Quality

  Air Quality AQ Index Pollutant
Not available.

Snow Depth

Station Depth Elevation

Earthquake Activity

City Distance Mag. Time & Date
Minimum magnitude displayed is 2.5.

Coastal Water Temperatures

Place Temperature

Stations

Nearby Weather Stations

Station Location Temp. Windchill Dew Point Humidity Wind Precip. Elev Updated Type